createdAt,value
2022-08-19T00:01:38.259Z,95700.25
2022-08-19T00:04:08.825Z,95749.19
2022-08-19T00:06:37.536Z,95735.13
2022-08-19T00:09:07.367Z,95744.28
2022-08-19T00:11:35.563Z,95723.13
2022-08-19T00:14:03.615Z,95707.28
2022-08-19T00:16:30.909Z,95752.75
2022-08-19T00:18:59.851Z,95760.69
2022-08-19T00:21:27.961Z,95778.91
2022-08-19T00:23:59.067Z,95786.63
2022-08-19T00:26:27.653Z,95778.66
2022-08-19T00:28:55.603Z,95766.69
2022-08-19T00:31:26.522Z,95778.41
2022-08-19T00:33:55.616Z,95777.88
2022-08-19T00:36:25.687Z,95771.53
2022-08-19T00:38:54.584Z,95782.31
2022-08-19T00:41:22.756Z,95781.56
2022-08-19T00:44:13.512Z,95779.38
2022-08-19T00:46:42.101Z,95759.00
2022-08-19T00:49:31.111Z,95774.78
2022-08-19T00:52:03.081Z,95766.75
2022-08-19T00:54:32.401Z,95747.22
2022-08-19T00:57:00.325Z,95764.88
2022-08-19T01:00:00.516Z,95764.97
2022-08-19T01:02:18.339Z,95762.97
2022-08-19T01:04:47.169Z,95755.81
2022-08-19T01:07:15.252Z,95751.09
2022-08-19T01:09:47.079Z,95738.63
2022-08-19T01:12:14.151Z,95768.44
2022-08-19T01:14:41.255Z,95732.00
2022-08-19T01:17:11.119Z,95773.53
2022-08-19T01:19:43.626Z,95789.47
2022-08-19T01:22:26.459Z,95799.66
2022-08-19T01:24:56.509Z,95792.00
2022-08-19T01:27:23.742Z,95782.19
2022-08-19T01:29:52.369Z,95750.66
2022-08-19T01:32:33.866Z,95771.53
2022-08-19T01:35:02.861Z,95775.69
2022-08-19T01:37:31.290Z,95784.38
2022-08-19T01:39:59.127Z,95794.59
2022-08-19T01:42:28.151Z,95765.22
2022-08-19T01:44:57.858Z,95788.53
2022-08-19T01:47:25.696Z,95784.19
2022-08-19T01:49:52.360Z,95765.53
2022-08-19T01:52:19.151Z,95765.34
2022-08-19T01:54:45.958Z,95763.66
2022-08-19T01:57:13.927Z,95759.38
2022-08-19T01:59:42.314Z,95752.88
2022-08-19T02:02:11.388Z,95779.97
2022-08-19T02:04:41.139Z,95784.56
2022-08-19T02:07:11.730Z,95807.31
2022-08-19T02:09:39.712Z,95806.00
2022-08-19T02:12:08.803Z,95827.59
2022-08-19T02:14:37.321Z,95774.84
2022-08-19T02:17:04.979Z,95784.94
2022-08-19T02:19:33.551Z,95789.75
2022-08-19T02:22:02.229Z,95782.13
2022-08-19T02:24:32.174Z,95783.72
2022-08-19T02:27:00.366Z,95765.91
2022-08-19T02:29:28.628Z,95786.75
2022-08-19T02:31:57.898Z,95758.38
2022-08-19T02:34:26.000Z,95785.69
2022-08-19T02:36:53.476Z,95765.63
2022-08-19T02:39:21.756Z,95774.84
2022-08-19T02:41:50.420Z,95792.03
2022-08-19T02:44:29.362Z,95813.25
2022-08-19T02:46:58.221Z,95801.28
2022-08-19T02:49:24.912Z,95783.25
2022-08-19T02:51:51.916Z,95777.03
2022-08-19T02:54:18.599Z,95804.66
2022-08-19T02:56:46.204Z,95799.59
2022-08-19T02:59:13.276Z,95798.06
2022-08-19T03:01:43.334Z,95808.94
2022-08-19T03:04:16.466Z,95784.66
2022-08-19T03:06:45.843Z,95786.16
2022-08-19T03:09:13.269Z,95724.00
2022-08-19T03:11:40.172Z,95775.72
2022-08-19T03:14:08.540Z,95774.00
2022-08-19T03:16:42.792Z,95738.84
2022-08-19T03:19:09.864Z,95764.38
2022-08-19T03:21:37.499Z,95733.25
2022-08-19T03:24:07.406Z,95739.28
2022-08-19T03:26:35.418Z,95764.41
2022-08-19T03:29:05.516Z,95757.69
2022-08-19T03:31:42.147Z,95760.72
2022-08-19T03:34:20.898Z,95733.91
2022-08-19T03:36:48.152Z,95773.94
2022-08-19T03:39:15.212Z,95750.59
2022-08-19T03:41:46.286Z,95790.69
2022-08-19T03:44:21.543Z,95801.06
2022-08-19T03:46:58.503Z,95798.78
2022-08-19T03:49:29.809Z,95791.91
2022-08-19T03:51:58.284Z,95793.25
2022-08-19T03:54:26.140Z,95787.13
2022-08-19T03:56:55.701Z,95787.69
2022-08-19T03:59:26.832Z,95802.88
2022-08-19T04:01:56.306Z,95799.97
2022-08-19T04:04:24.971Z,95789.47
2022-08-19T04:06:58.019Z,95775.31
2022-08-19T04:09:26.731Z,95797.88
2022-08-19T04:11:56.677Z,95791.16
2022-08-19T04:14:26.189Z,95799.59
2022-08-19T04:16:55.131Z,95773.91
2022-08-19T04:19:23.907Z,95779.97
2022-08-19T04:21:54.296Z,95781.28
2022-08-19T04:24:23.140Z,95765.34
2022-08-19T04:26:51.307Z,95755.69
2022-08-19T04:29:22.809Z,95781.66
2022-08-19T04:31:50.388Z,95773.53
2022-08-19T04:34:22.986Z,95790.81
2022-08-19T04:36:53.239Z,95781.75
2022-08-19T04:39:48.495Z,95755.44
2022-08-19T04:42:35.475Z,95772.69
2022-08-19T04:45:05.519Z,95762.50
2022-08-19T04:47:47.819Z,95796.81
2022-08-19T04:50:27.068Z,95817.19
2022-08-19T04:52:54.320Z,95812.13
2022-08-19T04:55:21.359Z,95796.91
2022-08-19T04:57:49.848Z,95799.38
2022-08-19T05:00:18.520Z,95828.91
2022-08-19T05:02:47.086Z,95821.22
2022-08-19T05:05:15.828Z,95843.69
2022-08-19T05:07:43.155Z,95811.97
2022-08-19T05:10:10.503Z,95814.25
2022-08-19T05:12:37.981Z,95822.31
2022-08-19T05:15:06.751Z,95837.41
2022-08-19T05:17:38.090Z,95819.09
2022-08-19T05:20:26.919Z,95849.47
2022-08-19T05:22:53.922Z,95844.13
2022-08-19T05:25:22.485Z,95850.91
2022-08-19T05:27:50.627Z,95857.03
2022-08-19T05:30:17.645Z,95862.34
2022-08-19T05:32:44.307Z,95856.59
2022-08-19T05:35:12.468Z,95860.56
2022-08-19T05:37:41.342Z,95846.09
2022-08-19T05:40:10.299Z,95861.03
2022-08-19T05:42:38.511Z,95857.25
2022-08-19T05:45:07.416Z,95835.28
2022-08-19T05:47:36.019Z,95822.31
2022-08-19T05:50:09.065Z,95834.78
2022-08-19T05:52:39.056Z,95834.91
2022-08-19T05:55:11.942Z,95844.75
2022-08-19T05:57:39.870Z,95819.72
2022-08-19T06:00:12.519Z,95818.84
2022-08-19T06:02:43.356Z,95820.47
2022-08-19T06:05:11.060Z,95834.22
2022-08-19T06:07:40.508Z,95830.66
2022-08-19T06:10:11.673Z,95817.59
2022-08-19T06:12:40.057Z,95821.00
2022-08-19T06:15:11.300Z,95824.44
2022-08-19T06:17:40.294Z,95821.69
2022-08-19T06:20:14.439Z,95811.00
2022-08-19T06:22:46.433Z,95839.44
2022-08-19T06:25:15.210Z,95846.34
2022-08-19T06:28:14.646Z,95823.19
2022-08-19T06:30:30.595Z,95829.03
2022-08-19T06:32:57.727Z,95846.25
2022-08-19T06:35:24.899Z,95837.56
2022-08-19T06:37:53.608Z,95842.09
2022-08-19T06:40:20.435Z,95855.59
2022-08-19T06:42:54.089Z,95837.94
2022-08-19T06:45:24.567Z,95850.50
2022-08-19T06:47:55.279Z,95822.38
2022-08-19T06:50:25.754Z,95857.31
2022-08-19T06:52:52.538Z,95850.13
2022-08-19T06:55:20.043Z,95851.16
2022-08-19T06:57:49.281Z,95835.94
2022-08-19T07:00:16.875Z,95860.78
2022-08-19T07:02:49.820Z,95841.22
2022-08-19T07:05:23.705Z,95826.50
2022-08-19T07:07:51.011Z,95845.88
2022-08-19T07:10:18.150Z,95851.53
2022-08-19T07:12:45.533Z,95818.00
2022-08-19T07:15:12.927Z,95841.91
2022-08-19T07:17:41.792Z,95838.81
2022-08-19T07:20:11.269Z,95838.69
2022-08-19T07:22:40.224Z,95850.88
2022-08-19T07:25:08.765Z,95829.25
2022-08-19T07:27:36.715Z,95853.06
2022-08-19T07:30:06.038Z,95843.03
2022-08-19T07:32:32.759Z,95845.97
2022-08-19T07:35:01.668Z,95851.81
2022-08-19T07:37:33.044Z,95832.72
2022-08-19T07:40:02.353Z,95845.22
2022-08-19T07:42:31.795Z,95824.34
2022-08-19T07:44:59.701Z,95757.91
2022-08-19T07:47:49.333Z,95831.78
2022-08-19T07:50:16.480Z,95833.69
2022-08-19T07:52:45.365Z,95822.94
2022-08-19T07:55:41.183Z,95823.59
2022-08-19T07:58:06.179Z,95830.56
2022-08-19T08:00:33.765Z,95817.25
2022-08-19T08:03:02.073Z,95823.28
2022-08-19T08:05:48.928Z,95830.66
2022-08-19T08:08:44.382Z,95836.41
2022-08-19T08:11:20.089Z,95819.53
2022-08-19T08:14:00.561Z,95840.13
2022-08-19T08:16:46.745Z,95837.84
2022-08-19T08:19:25.451Z,95827.03
2022-08-19T08:21:56.879Z,95834.13
2022-08-19T08:24:28.695Z,95850.31
2022-08-19T08:27:01.156Z,95847.56
2022-08-19T08:29:35.061Z,95841.31
2022-08-19T08:32:04.540Z,95806.50
2022-08-19T08:34:43.747Z,95824.88
2022-08-19T08:37:10.514Z,95821.34
2022-08-19T08:39:37.222Z,95824.06
2022-08-19T08:42:16.875Z,95830.97
2022-08-19T08:47:21.663Z,95818.69
2022-08-19T08:49:52.830Z,95814.16
2022-08-19T08:52:31.971Z,95835.84
2022-08-19T08:55:02.291Z,95825.44
2022-08-19T08:57:40.863Z,95819.72
2022-08-19T09:00:15.390Z,95835.38
2022-08-19T09:02:50.589Z,95850.72
2022-08-19T09:05:26.024Z,95867.66
2022-08-19T09:08:06.294Z,95858.88
2022-08-19T09:10:45.045Z,95857.91
2022-08-19T09:13:57.369Z,95866.03
2022-08-19T09:16:28.283Z,95856.66
2022-08-19T09:19:07.049Z,95861.88
2022-08-19T09:21:39.475Z,95872.50
2022-08-19T09:24:07.535Z,95860.50
2022-08-19T09:26:47.601Z,95866.06
2022-08-19T09:29:19.547Z,95849.97
2022-08-19T09:31:50.932Z,95850.28
2022-08-19T09:34:22.212Z,95847.56
2022-08-19T09:36:55.449Z,95874.84
2022-08-19T09:39:22.821Z,95862.19
2022-08-19T09:41:50.966Z,95850.09
2022-08-19T09:44:19.046Z,95848.00
2022-08-19T09:46:49.958Z,95865.34
2022-08-19T09:49:18.594Z,95854.41
2022-08-19T09:51:51.152Z,95856.59
2022-08-19T09:54:23.702Z,95814.31
2022-08-19T09:56:53.609Z,95851.25
2022-08-19T09:59:23.798Z,95863.69
2022-08-19T10:01:52.707Z,95859.38
2022-08-19T10:04:25.401Z,95836.31
2022-08-19T10:06:56.387Z,95876.97
2022-08-19T10:09:34.295Z,95864.09
2022-08-19T10:12:03.843Z,95875.53
2022-08-19T10:14:33.740Z,95876.50
2022-08-19T10:17:04.726Z,95894.78
2022-08-19T10:19:55.682Z,95863.00
2022-08-19T10:22:26.393Z,95867.06
2022-08-19T10:24:55.185Z,95891.97
2022-08-19T10:27:22.668Z,95885.19
2022-08-19T10:29:52.823Z,95868.81
2022-08-19T10:32:33.681Z,95889.13
2022-08-19T10:35:08.846Z,95871.00
2022-08-19T10:37:37.957Z,95881.66
2022-08-19T10:40:27.154Z,95883.69
2022-08-19T10:42:57.103Z,95872.97
2022-08-19T10:45:26.908Z,95866.94
2022-08-19T10:47:56.804Z,95882.16
2022-08-19T10:50:43.236Z,95858.63
2022-08-19T10:53:10.210Z,95821.16
2022-08-19T10:55:57.343Z,95868.66
2022-08-19T10:58:25.897Z,95879.38
2022-08-19T11:00:58.181Z,95874.59
2022-08-19T11:03:31.564Z,95866.44
2022-08-19T11:06:06.255Z,95857.63
2022-08-19T11:08:35.861Z,95861.63
2022-08-19T11:11:04.697Z,95812.75
2022-08-19T11:13:36.229Z,95872.09
2022-08-19T11:16:09.407Z,95869.06
2022-08-19T11:18:38.407Z,95860.69
2022-08-19T11:21:10.430Z,95870.06
2022-08-19T11:23:37.161Z,95868.38
2022-08-19T11:26:05.344Z,95876.25
2022-08-19T11:28:33.223Z,95865.75
2022-08-19T11:30:59.941Z,95850.00
2022-08-19T11:33:27.361Z,95856.72
2022-08-19T11:35:55.500Z,95870.78
2022-08-19T11:38:23.827Z,95868.94
2022-08-19T11:41:01.317Z,95871.84
2022-08-19T11:43:31.579Z,95855.41
2022-08-19T11:46:07.857Z,95873.94
2022-08-19T11:48:36.538Z,95880.53
2022-08-19T11:51:10.354Z,95875.00
2022-08-19T11:53:38.686Z,95863.44
2022-08-19T11:56:06.722Z,95845.06
2022-08-19T11:58:35.082Z,95864.59
2022-08-19T12:01:03.626Z,95860.72
2022-08-19T12:03:34.263Z,95847.81
2022-08-19T12:06:06.870Z,95851.69
2022-08-19T12:08:34.132Z,95860.19
2022-08-19T12:11:02.359Z,95861.97
2022-08-19T12:13:31.459Z,95861.28
2022-08-19T12:16:01.407Z,95849.41
2022-08-19T12:18:29.226Z,95853.91
2022-08-19T12:20:57.607Z,95855.25
2022-08-19T12:23:26.937Z,95850.22
2022-08-19T12:25:55.621Z,95861.94
2022-08-19T12:28:24.971Z,95869.28
2022-08-19T12:30:52.403Z,95868.94
2022-08-19T12:33:24.467Z,95847.47
2022-08-19T12:35:53.284Z,95854.00
2022-08-19T12:38:25.598Z,95865.81
2022-08-19T12:40:55.150Z,95871.94
2022-08-19T12:43:24.242Z,95896.03
2022-08-19T12:45:51.553Z,95886.38
2022-08-19T12:48:33.770Z,95873.03
2022-08-19T12:51:08.227Z,95820.63
2022-08-19T12:53:35.330Z,95889.00
2022-08-19T12:56:07.634Z,95847.97
2022-08-19T12:58:48.920Z,95889.06
2022-08-19T13:01:22.926Z,95898.97
2022-08-19T13:03:55.050Z,95895.09
2022-08-19T13:06:22.500Z,95902.59
2022-08-19T13:08:50.723Z,95898.25
2022-08-19T13:11:20.418Z,95889.72
2022-08-19T13:13:49.241Z,95900.44
2022-08-19T13:16:16.593Z,95904.41
2022-08-19T13:18:45.586Z,95875.09
2022-08-19T13:21:13.985Z,95908.91
2022-08-19T13:23:41.849Z,95897.13
2022-08-19T13:26:09.861Z,95901.59
2022-08-19T13:28:55.101Z,95831.97
2022-08-19T13:31:41.167Z,95893.38
2022-08-19T13:34:09.840Z,95882.22
2022-08-19T13:36:37.342Z,95880.16
2022-08-19T13:39:08.551Z,95883.03
2022-08-19T13:41:36.130Z,95887.19
2022-08-19T13:44:04.125Z,95885.75
2022-08-19T13:46:31.465Z,95884.72
2022-08-19T13:48:59.133Z,95885.78
2022-08-19T13:51:26.339Z,95889.06
2022-08-19T13:53:52.948Z,95881.72
2022-08-19T13:56:26.104Z,95886.19
2022-08-19T13:58:54.375Z,95813.72
2022-08-19T14:01:25.508Z,95885.25
2022-08-19T14:03:56.894Z,95875.22
2022-08-19T14:06:24.700Z,95870.25
2022-08-19T14:08:56.469Z,95868.38
2022-08-19T14:11:24.112Z,95875.69
2022-08-19T14:13:52.417Z,95860.94
2022-08-19T14:16:19.449Z,95863.25
2022-08-19T14:18:47.279Z,95879.84
2022-08-19T14:21:18.420Z,95883.84
2022-08-19T14:23:47.284Z,95877.47
2022-08-19T14:26:17.991Z,95877.50
2022-08-19T14:28:45.821Z,95874.38
2022-08-19T14:31:19.273Z,95828.50
2022-08-19T14:33:48.472Z,95884.34
2022-08-19T14:36:16.043Z,95880.91
2022-08-19T14:38:49.826Z,95879.13
2022-08-19T14:41:22.498Z,95890.19
2022-08-19T14:43:52.763Z,95897.09
2022-08-19T14:46:24.107Z,95891.63
2022-08-19T14:48:53.605Z,95900.06
2022-08-19T14:51:22.161Z,95889.28
2022-08-19T14:53:49.801Z,95916.22
2022-08-19T14:56:22.107Z,95922.09
2022-08-19T14:58:52.478Z,95914.25
2022-08-19T15:01:23.895Z,95900.81
2022-08-19T15:03:53.903Z,95910.19
2022-08-19T15:06:22.124Z,95914.88
2022-08-19T15:08:49.002Z,95898.56
2022-08-19T15:11:17.457Z,95916.69
2022-08-19T15:13:45.624Z,95929.34
2022-08-19T15:16:18.149Z,95910.84
2022-08-19T15:18:47.663Z,95925.75
2022-08-19T15:21:17.467Z,95927.94
2022-08-19T15:23:55.794Z,95931.06
2022-08-19T15:26:22.589Z,95933.72
2022-08-19T15:28:49.757Z,95932.38
2022-08-19T15:31:27.964Z,95938.31
2022-08-19T15:34:00.653Z,95945.13
2022-08-19T15:36:28.324Z,95940.09
2022-08-19T15:39:00.044Z,95935.19
2022-08-19T15:41:30.484Z,95917.91
2022-08-19T15:44:04.849Z,95937.94
2022-08-19T15:46:33.504Z,95929.31
2022-08-19T15:49:00.652Z,95944.94
2022-08-19T15:51:30.718Z,95946.16
2022-08-19T15:53:58.643Z,95904.16
2022-08-19T15:56:27.630Z,95919.22
2022-08-19T15:59:14.599Z,95950.50
2022-08-19T16:02:01.548Z,95931.63
2022-08-19T16:04:49.465Z,95947.72
2022-08-19T16:07:22.355Z,95945.69
2022-08-19T16:09:50.632Z,95946.81
2022-08-19T16:12:18.987Z,95927.44
2022-08-19T16:14:49.557Z,95942.72
2022-08-19T16:17:17.523Z,95940.09
2022-08-19T16:19:50.840Z,95956.81
2022-08-19T16:22:29.926Z,95951.63
2022-08-19T16:24:57.849Z,95942.31
2022-08-19T16:27:25.575Z,95962.22
2022-08-19T16:29:55.694Z,95959.66
2022-08-19T16:32:23.727Z,95961.94
2022-08-19T16:34:52.016Z,95976.56
2022-08-19T16:37:21.741Z,95954.50
2022-08-19T16:39:49.884Z,95966.75
2022-08-19T16:42:18.868Z,95957.41
2022-08-19T16:44:46.912Z,95970.97
2022-08-19T16:47:16.831Z,95962.28
2022-08-19T16:49:53.267Z,95958.97
2022-08-19T16:52:26.224Z,95995.31
2022-08-19T16:54:54.733Z,95984.16
2022-08-19T16:57:23.927Z,95991.91
2022-08-19T16:59:52.374Z,95982.88
2022-08-19T17:02:23.339Z,95988.59
2022-08-19T17:04:58.487Z,95993.59
2022-08-19T17:07:27.768Z,95987.47
2022-08-19T17:09:56.746Z,95955.28
2022-08-19T17:12:30.579Z,95999.50
2022-08-19T17:15:01.112Z,95996.44
2022-08-19T17:17:29.521Z,96004.75
2022-08-19T17:19:57.713Z,95990.47
2022-08-19T17:22:25.922Z,96007.34
2022-08-19T17:24:52.733Z,96005.53
2022-08-19T17:27:23.166Z,96018.56
2022-08-19T17:29:49.929Z,96005.81
2022-08-19T17:32:17.008Z,96021.38
2022-08-19T17:34:54.178Z,96005.31
2022-08-19T17:37:21.654Z,96023.00
2022-08-19T17:39:48.351Z,95996.53
2022-08-19T17:42:16.273Z,96023.53
2022-08-19T17:44:50.719Z,96024.91
2022-08-19T17:47:19.537Z,96039.44
2022-08-19T17:49:46.350Z,96014.94
2022-08-19T17:52:14.134Z,96039.81
2022-08-19T17:54:41.385Z,96029.63
2022-08-19T17:57:09.569Z,96035.44
2022-08-19T17:59:38.060Z,96039.13
2022-08-19T18:02:10.136Z,96037.00
2022-08-19T18:04:38.890Z,96046.00
2022-08-19T18:07:09.326Z,96039.53
2022-08-19T18:09:42.504Z,96061.81
2022-08-19T18:12:12.402Z,96064.34
2022-08-19T18:14:41.690Z,96057.00
2022-08-19T18:17:13.815Z,96057.88
2022-08-19T18:19:43.393Z,96065.09
2022-08-19T18:22:31.237Z,96071.06
2022-08-19T18:25:01.893Z,96060.81
2022-08-19T18:27:33.759Z,96062.41
2022-08-19T18:30:06.141Z,96073.56
2022-08-19T18:32:34.258Z,96054.59
2022-08-19T18:35:12.059Z,96080.19
2022-08-19T18:37:43.723Z,96075.81
2022-08-19T18:40:37.012Z,96073.50
2022-08-19T18:43:12.391Z,96082.13
2022-08-19T18:46:03.094Z,96089.50
2022-08-19T18:48:49.387Z,96083.19
2022-08-19T18:51:18.291Z,96077.88
2022-08-19T18:53:47.345Z,96088.94
2022-08-19T18:56:17.096Z,96095.16
2022-08-19T18:58:44.598Z,96082.97
2022-08-19T19:01:22.664Z,96096.91
2022-08-19T19:03:53.868Z,96097.22
2022-08-19T19:06:28.860Z,96117.53
2022-08-19T19:08:57.394Z,96110.66
2022-08-19T19:11:31.343Z,96127.63
2022-08-19T19:13:58.253Z,96111.47
2022-08-19T19:16:25.998Z,96115.22
2022-08-19T19:18:53.973Z,96110.97
2022-08-19T19:21:23.120Z,96124.59
2022-08-19T19:23:50.367Z,96124.66
2022-08-19T19:26:17.628Z,96106.13
2022-08-19T19:28:47.998Z,96127.44
2022-08-19T19:31:26.452Z,96130.78
2022-08-19T19:33:54.423Z,96127.63
2022-08-19T19:36:22.823Z,96138.63
2022-08-19T19:38:50.031Z,96125.59
2022-08-19T19:41:24.502Z,96126.84
2022-08-19T19:44:10.002Z,96130.97
2022-08-19T19:46:45.194Z,96140.94
2022-08-19T19:49:12.041Z,96117.91
2022-08-19T19:51:39.424Z,96140.19
2022-08-19T19:54:09.082Z,96137.59
2022-08-19T19:56:35.967Z,96127.63
2022-08-19T19:59:04.446Z,96148.63
2022-08-19T20:01:37.615Z,96138.88
2022-08-19T20:04:08.006Z,96132.69
2022-08-19T20:06:36.772Z,96157.25
2022-08-19T20:09:10.764Z,96163.25
2022-08-19T20:11:53.697Z,96178.06
2022-08-19T20:14:27.690Z,96169.31
2022-08-19T20:16:55.998Z,96187.03
2022-08-19T20:19:28.013Z,96182.81
2022-08-19T20:21:57.285Z,96178.97
2022-08-19T20:24:28.553Z,96184.25
2022-08-19T20:26:57.924Z,96174.78
2022-08-19T20:29:38.811Z,96189.78
2022-08-19T20:32:10.009Z,96181.31
2022-08-19T20:34:39.840Z,96199.97
2022-08-19T20:37:09.435Z,96184.78
2022-08-19T20:39:38.037Z,96191.56
2022-08-19T20:42:05.846Z,96186.19
2022-08-19T20:44:33.586Z,96182.47
2022-08-19T20:47:03.823Z,96195.41
2022-08-19T20:49:32.285Z,96111.88
2022-08-19T20:52:00.391Z,96197.06
2022-08-19T20:54:27.600Z,96197.50
2022-08-19T20:56:54.634Z,96131.38
2022-08-19T20:59:22.905Z,96185.94
2022-08-19T21:01:51.906Z,96163.72
2022-08-19T21:04:22.377Z,96208.13
2022-08-19T21:06:51.032Z,96184.25
2022-08-19T21:09:18.042Z,96204.09
2022-08-19T21:11:45.535Z,96196.34
2022-08-19T21:14:12.854Z,96205.94
2022-08-19T21:16:39.565Z,96196.84
2022-08-19T21:19:06.687Z,96228.50
2022-08-19T21:21:34.980Z,96218.44
2022-08-19T21:24:01.780Z,96201.03
2022-08-19T21:26:28.450Z,96221.75
2022-08-19T21:28:56.811Z,96208.03
2022-08-19T21:31:24.569Z,96214.84
2022-08-19T21:33:52.317Z,96195.56
2022-08-19T21:36:19.440Z,96210.13
2022-08-19T21:38:46.224Z,96203.97
2022-08-19T21:41:13.356Z,96217.72
2022-08-19T21:43:40.910Z,96190.91
2022-08-19T21:46:09.566Z,96217.34
2022-08-19T21:48:38.005Z,96205.19
2022-08-19T21:51:07.705Z,96189.94
2022-08-19T21:53:35.789Z,96212.97
2022-08-19T21:56:06.383Z,96238.72
2022-08-19T21:58:36.368Z,96233.28
2022-08-19T22:01:06.158Z,96233.28
2022-08-19T22:03:35.624Z,96228.72
2022-08-19T22:06:05.535Z,96227.38
2022-08-19T22:08:33.390Z,96210.97
2022-08-19T22:11:03.922Z,96215.16
2022-08-19T22:13:40.142Z,96218.28
2022-08-19T22:16:10.762Z,96201.84
2022-08-19T22:18:39.116Z,96198.97
2022-08-19T22:21:14.222Z,96210.09
2022-08-19T22:23:47.028Z,96199.91
2022-08-19T22:26:17.763Z,96190.72
2022-08-19T22:28:46.673Z,96170.31
2022-08-19T22:31:16.059Z,96194.78
2022-08-19T22:33:47.783Z,96191.69
2022-08-19T22:36:15.335Z,96197.72
2022-08-19T22:38:43.738Z,96213.00
2022-08-19T22:41:11.741Z,96214.59
2022-08-19T22:43:40.875Z,96190.84
2022-08-19T22:46:17.454Z,96188.09
2022-08-19T22:48:47.705Z,96206.69
2022-08-19T22:51:37.176Z,96185.00
2022-08-19T22:54:04.760Z,96204.97
2022-08-19T22:56:32.139Z,96200.13
2022-08-19T22:58:58.849Z,96187.41
2022-08-19T23:01:30.433Z,96179.72
2022-08-19T23:04:00.225Z,96182.22
2022-08-19T23:06:34.160Z,96200.13
2022-08-19T23:09:07.293Z,96189.03
2022-08-19T23:11:42.005Z,96210.09
2022-08-19T23:14:10.340Z,96203.50
2022-08-19T23:16:37.230Z,96177.88
2022-08-19T23:19:04.985Z,96207.16
2022-08-19T23:21:36.043Z,96215.53
2022-08-19T23:24:03.065Z,96212.34
2022-08-19T23:26:35.589Z,96209.91
2022-08-19T23:29:23.713Z,96213.41
2022-08-19T23:31:52.080Z,96210.22
2022-08-19T23:34:18.822Z,96181.06
2022-08-19T23:36:46.270Z,96217.28
2022-08-19T23:39:13.057Z,96218.28
2022-08-19T23:41:40.895Z,96220.78
2022-08-19T23:44:14.408Z,96197.34
2022-08-19T23:46:55.378Z,96218.69
2022-08-19T23:49:23.564Z,96222.97
2022-08-19T23:51:50.335Z,96207.06
2022-08-19T23:54:16.948Z,96216.53
2022-08-19T23:56:45.059Z,96206.94
2022-08-19T23:59:12.117Z,96202.56
